NE64 weather

Hershey Flying Service Field Airport
Hershey, Nebraska, United States

Public forecast

Using degrees Fahrenheit for public forecast. Weather courtesy of forecast.io.

Closest aviation weather report (METAR) to Hershey Flying Service Field Airport

Closest report is North Platte Regional Airport Lee Bird Field, 13.5 nm (25.0 km) E. Retrieved 2020/06/07 05:53 UTC (51 minutes ago):

KLBF 070553Z AUTO 15010G20KT 10SM CLR 27/14 A2972 RMK AO2 SLP026 T02720144 10333 20233 403560217 50004

Closest aviation forecast (TAF) to Hershey Flying Service Field Airport

Closest forecast is North Platte Regional Airport Lee Bird Field, 13.5 nm (25.0 km) E. Retrieved 2020/06/07 06:22 UTC (22 minutes ago):

TAF KLBF 070520Z 0706/0806 22013KT P6SM BKN250 WS020/18055KT FM070800 15018G28KT P6SM SCT200 WS020/19050KT FM071400 16016G27KT P6SM FEW250 FM071900 17023G34KT P6SM FEW250 FM080100 15024G35KT P6SM FEW200 WS020/17050KT